sensor_id;sensor_type;location;lat;lon;timestamp;pressure;altitude;pressure_sealevel;temperature;humidity
47883;BME280;37739;50.350;7.578;2023-02-17T00:00:57;100431.09;;;8.68;91.87
47883;BME280;37739;50.350;7.578;2023-02-17T00:03:23;100433.75;;;8.69;91.59
47883;BME280;37739;50.350;7.578;2023-02-17T00:05:51;100437.13;;;8.68;91.95
47883;BME280;37739;50.350;7.578;2023-02-17T00:08:19;100432.06;;;8.70;91.51
47883;BME280;37739;50.350;7.578;2023-02-17T00:10:56;100434.81;;;8.73;91.23
47883;BME280;37739;50.350;7.578;2023-02-17T00:13:24;100431.28;;;8.71;91.63
47883;BME280;37739;50.350;7.578;2023-02-17T00:15:52;100426.06;;;8.69;91.49
47883;BME280;37739;50.350;7.578;2023-02-17T00:18:17;100433.84;;;8.71;91.62
47883;BME280;37739;50.350;7.578;2023-02-17T00:20:43;100434.81;;;8.73;91.18
47883;BME280;37739;50.350;7.578;2023-02-17T00:23:08;100438.09;;;8.70;91.83
47883;BME280;37739;50.350;7.578;2023-02-17T00:25:33;100430.41;;;8.70;92.08
47883;BME280;37739;50.350;7.578;2023-02-17T00:28:01;100428.81;;;8.72;91.87
47883;BME280;37739;50.350;7.578;2023-02-17T00:30:26;100426.34;;;8.74;91.70
47883;BME280;37739;50.350;7.578;2023-02-17T00:32:52;100423.84;;;8.75;91.19
47883;BME280;37739;50.350;7.578;2023-02-17T00:35:17;100416.16;;;8.75;91.48
47883;BME280;37739;50.350;7.578;2023-02-17T00:37:45;100418.81;;;8.77;91.48
47883;BME280;37739;50.350;7.578;2023-02-17T00:40:13;100417.13;;;8.77;91.27
47883;BME280;37739;50.350;7.578;2023-02-17T00:42:39;100413.78;;;8.78;91.06
47883;BME280;37739;50.350;7.578;2023-02-17T00:45:05;100413.78;;;8.78;91.16
47883;BME280;37739;50.350;7.578;2023-02-17T00:47:31;100415.47;;;8.78;91.52
47883;BME280;37739;50.350;7.578;2023-02-17T00:49:58;100412.91;;;8.78;91.56
47883;BME280;37739;50.350;7.578;2023-02-17T00:52:24;100423.16;;;8.78;91.69
47883;BME280;37739;50.350;7.578;2023-02-17T00:54:49;100410.28;;;8.76;91.59
47883;BME280;37739;50.350;7.578;2023-02-17T00:57:17;100416.34;;;8.78;91.75
47883;BME280;37739;50.350;7.578;2023-02-17T00:59:42;100412.19;;;8.80;91.38
47883;BME280;37739;50.350;7.578;2023-02-17T01:02:07;100405.25;;;8.78;92.00
47883;BME280;37739;50.350;7.578;2023-02-17T01:04:37;100401.97;;;8.80;91.58
47883;BME280;37739;50.350;7.578;2023-02-17T01:07:02;100408.75;;;8.80;91.71
47883;BME280;37739;50.350;7.578;2023-02-17T01:09:31;100405.31;;;8.79;91.72
47883;BME280;37739;50.350;7.578;2023-02-17T01:11:56;100407.84;;;8.79;91.56
47883;BME280;37739;50.350;7.578;2023-02-17T01:14:23;100414.75;;;8.80;91.86
47883;BME280;37739;50.350;7.578;2023-02-17T01:16:49;100412.19;;;8.80;92.06
47883;BME280;37739;50.350;7.578;2023-02-17T01:19:18;100407.16;;;8.82;91.60
47883;BME280;37739;50.350;7.578;2023-02-17T01:21:44;100403.78;;;8.83;91.81
47883;BME280;37739;50.350;7.578;2023-02-17T01:24:12;100398.69;;;8.83;91.91
47883;BME280;37739;50.350;7.578;2023-02-17T01:26:39;100390.22;;;8.84;91.56
47883;BME280;37739;50.350;7.578;2023-02-17T01:29:06;100382.63;;;8.86;91.34
47883;BME280;37739;50.350;7.578;2023-02-17T01:31:32;100381.72;;;8.85;91.79
47883;BME280;37739;50.350;7.578;2023-02-17T01:33:59;100376.59;;;8.85;91.44
47883;BME280;37739;50.350;7.578;2023-02-17T01:36:25;100372.41;;;8.86;91.39
47883;BME280;37739;50.350;7.578;2023-02-17T01:38:53;100372.63;;;8.90;91.21
47883;BME280;37739;50.350;7.578;2023-02-17T01:41:22;100365.69;;;8.88;91.39
47883;BME280;37739;50.350;7.578;2023-02-17T01:46:40;100356.31;;;8.88;91.85
47883;BME280;37739;50.350;7.578;2023-02-17T01:51:41;100349.41;;;8.87;92.32
47883;BME280;37739;50.350;7.578;2023-02-17T01:54:16;100343.44;;;8.87;92.57
47883;BME280;37739;50.350;7.578;2023-02-17T01:56:45;100357.19;;;8.89;92.36
47883;BME280;37739;50.350;7.578;2023-02-17T01:59:19;100351.38;;;8.91;92.46
47883;BME280;37739;50.350;7.578;2023-02-17T02:01:49;100343.59;;;8.90;92.82
47883;BME280;37739;50.350;7.578;2023-02-17T02:04:18;100345.28;;;8.89;92.59
47883;BME280;37739;50.350;7.578;2023-02-17T02:06:44;100337.66;;;8.91;93.01
47883;BME280;37739;50.350;7.578;2023-02-17T02:09:20;100333.50;;;8.93;92.81
47883;BME280;37739;50.350;7.578;2023-02-17T02:11:48;100324.19;;;8.93;92.63
47883;BME280;37739;50.350;7.578;2023-02-17T02:14:13;100323.38;;;8.94;92.93
47883;BME280;37739;50.350;7.578;2023-02-17T02:17:11;100312.25;;;8.94;93.03
47883;BME280;37739;50.350;7.578;2023-02-17T02:27:50;100308.81;;;8.93;93.86
47883;BME280;37739;50.350;7.578;2023-02-17T02:41:23;100293.69;;;8.98;93.63
47883;BME280;37739;50.350;7.578;2023-02-17T02:43:51;100295.38;;;8.97;93.88
47883;BME280;37739;50.350;7.578;2023-02-17T02:46:19;100296.25;;;8.98;93.41
47883;BME280;37739;50.350;7.578;2023-02-17T02:48:45;100298.03;;;8.99;93.25
47883;BME280;37739;50.350;7.578;2023-02-17T02:51:28;100289.44;;;8.98;93.69
47883;BME280;37739;50.350;7.578;2023-02-17T02:54:55;100292.97;;;9.00;93.69
47883;BME280;37739;50.350;7.578;2023-02-17T02:57:05;100289.69;;;9.03;94.07
47883;BME280;37739;50.350;7.578;2023-02-17T03:02:37;100287.94;;;9.02;93.92
47883;BME280;37739;50.350;7.578;2023-02-17T03:05:12;100288.81;;;9.02;93.80
47883;BME280;37739;50.350;7.578;2023-02-17T03:07:46;100293.22;;;9.05;93.74
47883;BME280;37739;50.350;7.578;2023-02-17T03:10:14;100290.66;;;9.05;93.97
47883;BME280;37739;50.350;7.578;2023-02-17T03:12:42;100293.22;;;9.05;94.03
47883;BME280;37739;50.350;7.578;2023-02-17T03:15:14;100288.97;;;9.06;94.06
47883;BME280;37739;50.350;7.578;2023-02-17T03:17:42;100290.78;;;9.08;93.96
47883;BME280;37739;50.350;7.578;2023-02-17T03:20:08;100290.78;;;9.08;93.88
47883;BME280;37739;50.350;7.578;2023-02-17T03:22:38;100289.13;;;9.09;93.92
47883;BME280;37739;50.350;7.578;2023-02-17T03:25:05;100296.00;;;9.10;93.51
47883;BME280;37739;50.350;7.578;2023-02-17T03:27:31;100300.25;;;9.09;93.79
47883;BME280;37739;50.350;7.578;2023-02-17T03:29:56;100302.00;;;9.10;94.08
47883;BME280;37739;50.350;7.578;2023-02-17T03:32:21;100305.44;;;9.11;94.40
47883;BME280;37739;50.350;7.578;2023-02-17T03:34:49;100302.06;;;9.12;93.53
47883;BME280;37739;50.350;7.578;2023-02-17T03:37:15;100297.84;;;9.12;93.62
47883;BME280;37739;50.350;7.578;2023-02-17T03:39:40;100300.41;;;9.12;94.01
47883;BME280;37739;50.350;7.578;2023-02-17T03:42:05;100302.16;;;9.13;93.84
47883;BME280;37739;50.350;7.578;2023-02-17T03:44:33;100290.97;;;9.11;94.52
47883;BME280;37739;50.350;7.578;2023-02-17T03:46:58;100288.47;;;9.13;94.81
47883;BME280;37739;50.350;7.578;2023-02-17T03:49:24;100293.69;;;9.14;94.45
47883;BME280;37739;50.350;7.578;2023-02-17T03:51:49;100291.13;;;9.14;94.55
47883;BME280;37739;50.350;7.578;2023-02-17T03:54:14;100279.19;;;9.15;94.51
47883;BME280;37739;50.350;7.578;2023-02-17T03:56:44;100276.56;;;9.13;94.67
47883;BME280;37739;50.350;7.578;2023-02-17T03:59:12;100268.97;;;9.15;94.32
47883;BME280;37739;50.350;7.578;2023-02-17T04:01:37;100266.31;;;9.13;94.66
47883;BME280;37739;50.350;7.578;2023-02-17T04:04:03;100260.31;;;9.13;94.84
47883;BME280;37739;50.350;7.578;2023-02-17T04:06:28;100258.63;;;9.13;94.79
47883;BME280;37739;50.350;7.578;2023-02-17T04:08:58;100266.31;;;9.13;95.14
47883;BME280;37739;50.350;7.578;2023-02-17T04:11:26;100263.75;;;9.13;95.35
47883;BME280;37739;50.350;7.578;2023-02-17T04:13:51;100265.53;;;9.14;94.95
47883;BME280;37739;50.350;7.578;2023-02-17T04:16:19;100258.72;;;9.15;94.84
47883;BME280;37739;50.350;7.578;2023-02-17T04:18:46;100254.56;;;9.17;94.78
47883;BME280;37739;50.350;7.578;2023-02-17T04:21:14;100252.88;;;9.17;94.85
47883;BME280;37739;50.350;7.578;2023-02-17T04:23:39;100258.94;;;9.19;94.87
47883;BME280;37739;50.350;7.578;2023-02-17T04:26:07;100252.94;;;9.19;94.88
47883;BME280;37739;50.350;7.578;2023-02-17T04:28:34;100256.47;;;9.21;94.98
47883;BME280;37739;50.350;7.578;2023-02-17T04:30:59;100251.19;;;9.18;94.92
47883;BME280;37739;50.350;7.578;2023-02-17T04:33:27;100258.94;;;9.19;95.14
47883;BME280;37739;50.350;7.578;2023-02-17T04:35:52;100264.97;;;9.20;95.22
47883;BME280;37739;50.350;7.578;2023-02-17T04:38:26;100263.28;;;9.20;94.89
47883;BME280;37739;50.350;7.578;2023-02-17T04:40:55;100276.16;;;9.22;94.87
47883;BME280;37739;50.350;7.578;2023-02-17T04:43:22;100277.91;;;9.23;94.70
47883;BME280;37739;50.350;7.578;2023-02-17T04:45:50;100277.03;;;9.22;94.59
47883;BME280;37739;50.350;7.578;2023-02-17T04:48:16;100267.66;;;9.23;94.44
47883;BME280;37739;50.350;7.578;2023-02-17T04:50:45;100271.03;;;9.22;94.52
47883;BME280;37739;50.350;7.578;2023-02-17T04:53:11;100272.84;;;9.24;94.47
47883;BME280;37739;50.350;7.578;2023-02-17T04:55:40;100277.09;;;9.24;94.36
47883;BME280;37739;50.350;7.578;2023-02-17T04:58:06;100276.28;;;9.25;94.58
47883;BME280;37739;50.350;7.578;2023-02-17T05:00:32;100273.81;;;9.27;94.22
47883;BME280;37739;50.350;7.578;2023-02-17T05:03:00;100285.81;;;9.28;94.13
47883;BME280;37739;50.350;7.578;2023-02-17T05:05:26;100276.44;;;9.28;94.03
47883;BME280;37739;50.350;7.578;2023-02-17T05:07:51;100266.13;;;9.27;94.00
47883;BME280;37739;50.350;7.578;2023-02-17T05:10:19;100272.19;;;9.29;94.21
47883;BME280;37739;50.350;7.578;2023-02-17T05:12:44;100273.06;;;9.29;93.84
47883;BME280;37739;50.350;7.578;2023-02-17T05:15:12;100275.72;;;9.31;94.00
47883;BME280;37739;50.350;7.578;2023-02-17T05:17:37;100274.75;;;9.29;94.02
47883;BME280;37739;50.350;7.578;2023-02-17T05:20:04;100270.59;;;9.31;93.79
47883;BME280;37739;50.350;7.578;2023-02-17T05:22:32;100277.41;;;9.30;94.06
47883;BME280;37739;50.350;7.578;2023-02-17T05:24:59;100278.34;;;9.32;93.82
47883;BME280;37739;50.350;7.578;2023-02-17T05:27:27;100267.16;;;9.30;94.16
47883;BME280;37739;50.350;7.578;2023-02-17T05:29:57;100278.34;;;9.32;93.63
47883;BME280;37739;50.350;7.578;2023-02-17T05:32:23;100275.06;;;9.35;93.48
47883;BME280;37739;50.350;7.578;2023-02-17T05:34:48;100283.56;;;9.34;93.62
47883;BME280;37739;50.350;7.578;2023-02-17T05:37:14;100271.63;;;9.34;93.57
47883;BME280;37739;50.350;7.578;2023-02-17T05:39:39;100263.06;;;9.34;93.45
47883;BME280;37739;50.350;7.578;2023-02-17T05:42:04;100255.41;;;9.34;93.42
47883;BME280;37739;50.350;7.578;2023-02-17T05:44:30;100266.59;;;9.36;93.65
47883;BME280;37739;50.350;7.578;2023-02-17T05:46:55;100268.34;;;9.37;93.44
47883;BME280;37739;50.350;7.578;2023-02-17T05:49:20;100261.56;;;9.37;93.10
47883;BME280;37739;50.350;7.578;2023-02-17T05:51:46;100268.50;;;9.40;93.13
47883;BME280;37739;50.350;7.578;2023-02-17T05:54:11;100265.94;;;9.40;93.26
47883;BME280;37739;50.350;7.578;2023-02-17T05:56:39;100260.81;;;9.40;93.33
47883;BME280;37739;50.350;7.578;2023-02-17T05:59:04;100259.19;;;9.42;92.93
47883;BME280;37739;50.350;7.578;2023-02-17T06:01:29;100261.94;;;9.45;92.72
47883;BME280;37739;50.350;7.578;2023-02-17T06:03:57;100275.53;;;9.44;92.59
47883;BME280;37739;50.350;7.578;2023-02-17T06:06:22;100273.03;;;9.46;92.56
47883;BME280;37739;50.350;7.578;2023-02-17T06:08:50;100266.22;;;9.46;92.52
47883;BME280;37739;50.350;7.578;2023-02-17T06:11:18;100272.28;;;9.48;92.31
47883;BME280;37739;50.350;7.578;2023-02-17T06:13:45;100275.69;;;9.47;92.31
47883;BME280;37739;50.350;7.578;2023-02-17T06:16:13;100274.00;;;9.48;92.20
47883;BME280;37739;50.350;7.578;2023-02-17T06:18:43;100271.34;;;9.46;92.39
47883;BME280;37739;50.350;7.578;2023-02-17T06:21:11;100281.75;;;9.49;92.33
47883;BME280;37739;50.350;7.578;2023-02-17T06:23:41;100283.50;;;9.50;92.36
47883;BME280;37739;50.350;7.578;2023-02-17T06:26:08;100280.16;;;9.51;91.84
47883;BME280;37739;50.350;7.578;2023-02-17T06:28:34;100282.78;;;9.53;92.30
47883;BME280;37739;50.350;7.578;2023-02-17T06:30:59;100293.03;;;9.53;91.98
47883;BME280;37739;50.350;7.578;2023-02-17T06:33:24;100281.19;;;9.55;91.86
47883;BME280;37739;50.350;7.578;2023-02-17T06:35:52;100287.16;;;9.55;91.88
47883;BME280;37739;50.350;7.578;2023-02-17T06:38:18;100289.00;;;9.58;91.54
47883;BME280;37739;50.350;7.578;2023-02-17T06:40:43;100284.69;;;9.57;91.87
47883;BME280;37739;50.350;7.578;2023-02-17T06:43:11;100293.09;;;9.54;91.64
47883;BME280;37739;50.350;7.578;2023-02-17T06:45:38;100284.78;;;9.58;91.56
47883;BME280;37739;50.350;7.578;2023-02-17T06:48:04;100272.00;;;9.60;91.48
47883;BME280;37739;50.350;7.578;2023-02-17T06:50:29;100274.56;;;9.60;91.58
47883;BME280;37739;50.350;7.578;2023-02-17T06:52:57;100266.03;;;9.59;91.77
47883;BME280;37739;50.350;7.578;2023-02-17T06:55:22;100270.34;;;9.60;91.73
47883;BME280;37739;50.350;7.578;2023-02-17T06:57:48;100263.53;;;9.61;91.53
47883;BME280;37739;50.350;7.578;2023-02-17T07:00:13;100282.34;;;9.61;91.70
47883;BME280;37739;50.350;7.578;2023-02-17T07:02:39;100292.66;;;9.63;91.54
47883;BME280;37739;50.350;7.578;2023-02-17T07:05:05;100286.72;;;9.64;91.55
47883;BME280;37739;50.350;7.578;2023-02-17T07:07:31;100283.38;;;9.65;91.60
47883;BME280;37739;50.350;7.578;2023-02-17T07:09:59;100295.38;;;9.66;91.75
47883;BME280;37739;50.350;7.578;2023-02-17T07:12:29;100296.19;;;9.65;91.64
47883;BME280;37739;50.350;7.578;2023-02-17T07:14:55;100297.03;;;9.66;91.79
47883;BME280;37739;50.350;7.578;2023-02-17T07:17:23;100286.97;;;9.69;91.35
47883;BME280;37739;50.350;7.578;2023-02-17T07:19:48;100274.06;;;9.67;91.95
47883;BME280;37739;50.350;7.578;2023-02-17T07:22:16;100276.72;;;9.69;91.67
47883;BME280;37739;50.350;7.578;2023-02-17T07:24:43;100277.75;;;9.72;91.63
47883;BME280;37739;50.350;7.578;2023-02-17T07:27:09;100270.78;;;9.70;91.79
47883;BME280;37739;50.350;7.578;2023-02-17T07:29:36;100274.16;;;9.69;92.01
47883;BME280;37739;50.350;7.578;2023-02-17T07:32:02;100276.78;;;9.70;92.25
47883;BME280;37739;50.350;7.578;2023-02-17T07:34:32;100265.81;;;9.73;91.92
47883;BME280;37739;50.350;7.578;2023-02-17T07:37:02;100268.44;;;9.74;92.10
47883;BME280;37739;50.350;7.578;2023-02-17T07:39:27;100269.31;;;9.75;92.10
47883;BME280;37739;50.350;7.578;2023-02-17T07:41:55;100272.81;;;9.77;91.96
47883;BME280;37739;50.350;7.578;2023-02-17T07:44:25;100268.53;;;9.76;92.36
47883;BME280;37739;50.350;7.578;2023-02-17T07:46:51;100266.75;;;9.75;92.84
47883;BME280;37739;50.350;7.578;2023-02-17T07:49:19;100263.53;;;9.79;92.53
47883;BME280;37739;50.350;7.578;2023-02-17T07:51:44;100253.28;;;9.79;92.63
47883;BME280;37739;50.350;7.578;2023-02-17T07:54:09;100267.03;;;9.81;92.73
47883;BME280;37739;50.350;7.578;2023-02-17T07:56:39;100268.72;;;9.80;93.21
47883;BME280;37739;50.350;7.578;2023-02-17T07:59:08;100265.44;;;9.83;93.27
47883;BME280;37739;50.350;7.578;2023-02-17T08:01:36;100267.19;;;9.84;93.30
47883;BME280;37739;50.350;7.578;2023-02-17T08:04:05;100277.44;;;9.84;93.55
47883;BME280;37739;50.350;7.578;2023-02-17T08:06:30;100290.19;;;9.82;94.23
47883;BME280;37739;50.350;7.578;2023-02-17T08:08:58;100291.00;;;9.81;94.13
47883;BME280;37739;50.350;7.578;2023-02-17T08:11:42;100291.94;;;9.83;94.13
47883;BME280;37739;50.350;7.578;2023-02-17T08:14:30;100292.75;;;9.82;94.67
47883;BME280;37739;50.350;7.578;2023-02-17T08:17:00;100293.63;;;9.83;94.49
47883;BME280;37739;50.350;7.578;2023-02-17T08:19:28;100296.19;;;9.83;94.87
47883;BME280;37739;50.350;7.578;2023-02-17T08:21:53;100287.78;;;9.86;94.86
47883;BME280;37739;50.350;7.578;2023-02-17T08:24:18;100280.09;;;9.86;95.06
47883;BME280;37739;50.350;7.578;2023-02-17T08:26:44;100283.69;;;9.89;94.89
47883;BME280;37739;50.350;7.578;2023-02-17T08:29:10;100280.38;;;9.92;94.94
47883;BME280;37739;50.350;7.578;2023-02-17T08:31:35;100288.13;;;9.93;94.97
47883;BME280;37739;50.350;7.578;2023-02-17T08:34:06;100292.44;;;9.94;95.14
47883;BME280;37739;50.350;7.578;2023-02-17T08:36:34;100291.41;;;9.91;95.53
47883;BME280;37739;50.350;7.578;2023-02-17T08:39:05;100299.94;;;9.90;96.42
47883;BME280;37739;50.350;7.578;2023-02-17T08:41:36;100315.38;;;9.91;95.90
47883;BME280;37739;50.350;7.578;2023-02-17T08:44:10;100323.06;;;9.91;96.71
47883;BME280;37739;50.350;7.578;2023-02-17T08:46:36;100310.31;;;9.93;96.35
47883;BME280;37739;50.350;7.578;2023-02-17T08:49:07;100304.31;;;9.92;96.37
47883;BME280;37739;50.350;7.578;2023-02-17T08:51:33;100306.09;;;9.93;96.71
47883;BME280;37739;50.350;7.578;2023-02-17T08:54:03;100300.06;;;9.93;96.78
47883;BME280;37739;50.350;7.578;2023-02-17T08:56:32;100290.69;;;9.93;96.75
47883;BME280;37739;50.350;7.578;2023-02-17T08:59:00;100279.63;;;9.94;97.07
47883;BME280;37739;50.350;7.578;2023-02-17T09:01:25;100284.16;;;10.00;96.03
47883;BME280;37739;50.350;7.578;2023-02-17T09:03:55;100288.53;;;10.02;96.04
47883;BME280;37739;50.350;7.578;2023-02-17T09:06:30;100298.97;;;10.06;96.21
47883;BME280;37739;50.350;7.578;2023-02-17T09:08:55;100290.53;;;10.08;96.34
47883;BME280;37739;50.350;7.578;2023-02-17T09:11:20;100285.75;;;10.16;95.88
47883;BME280;37739;50.350;7.578;2023-02-17T09:13:48;100296.31;;;10.22;95.55
47883;BME280;37739;50.350;7.578;2023-02-17T09:16:13;100296.50;;;10.27;95.58
47883;BME280;37739;50.350;7.578;2023-02-17T09:18:41;100293.19;;;10.29;95.80
47883;BME280;37739;50.350;7.578;2023-02-17T09:21:11;100297.69;;;10.33;95.23
47883;BME280;37739;50.350;7.578;2023-02-17T09:23:37;100299.63;;;10.37;95.25
47883;BME280;37739;50.350;7.578;2023-02-17T09:26:08;100300.59;;;10.41;95.28
47883;BME280;37739;50.350;7.578;2023-02-17T09:28:37;100299.03;;;10.43;95.15
47883;BME280;37739;50.350;7.578;2023-02-17T09:33:38;100314.22;;;10.58;94.51
47883;BME280;37739;50.350;7.578;2023-02-17T09:36:07;100320.34;;;10.61;94.66
47883;BME280;37739;50.350;7.578;2023-02-17T09:38:41;100321.53;;;10.68;94.59
47883;BME280;37739;50.350;7.578;2023-02-17T09:41:20;100316.75;;;10.76;93.99
47883;BME280;37739;50.350;7.578;2023-02-17T09:43:48;100321.13;;;10.78;94.04
47883;BME280;37739;50.350;7.578;2023-02-17T09:46:26;100323.81;;;10.81;93.98
47883;BME280;37739;50.350;7.578;2023-02-17T09:48:56;100322.25;;;10.85;93.83
47883;BME280;37739;50.350;7.578;2023-02-17T09:51:36;100313.00;;;10.89;93.80
47883;BME280;37739;50.350;7.578;2023-02-17T09:56:40;100324.38;;;10.94;93.71
47883;BME280;37739;50.350;7.578;2023-02-17T09:59:26;100325.22;;;10.94;93.84
47883;BME280;37739;50.350;7.578;2023-02-17T10:01:54;100308.19;;;10.96;93.36
47883;BME280;37739;50.350;7.578;2023-02-17T10:04:34;100306.50;;;10.97;93.54
47883;BME280;37739;50.350;7.578;2023-02-17T10:07:07;100316.78;;;10.97;93.42
47883;BME280;37739;50.350;7.578;2023-02-17T10:09:41;100314.16;;;10.95;93.51
47883;BME280;37739;50.350;7.578;2023-02-17T10:12:17;100311.72;;;10.98;93.63
47883;BME280;37739;50.350;7.578;2023-02-17T10:14:52;100310.03;;;10.99;93.79
47883;BME280;37739;50.350;7.578;2023-02-17T10:20:21;100308.41;;;11.01;93.63
47883;BME280;37739;50.350;7.578;2023-02-17T10:22:54;100306.97;;;11.08;93.42
47883;BME280;37739;50.350;7.578;2023-02-17T10:28:09;100319.38;;;11.18;93.14
47883;BME280;37739;50.350;7.578;2023-02-17T10:30:56;100313.72;;;11.25;92.83
47883;BME280;37739;50.350;7.578;2023-02-17T10:33:52;100312.09;;;11.27;91.99
47883;BME280;37739;50.350;7.578;2023-02-17T10:39:11;100312.28;;;11.32;92.53
47883;BME280;37739;50.350;7.578;2023-02-17T10:41:39;100313.28;;;11.35;92.25
47883;BME280;37739;50.350;7.578;2023-02-17T10:44:16;100316.81;;;11.37;92.20
47883;BME280;37739;50.350;7.578;2023-02-17T10:46:47;100309.28;;;11.42;92.19
47883;BME280;37739;50.350;7.578;2023-02-17T10:49:31;100304.22;;;11.44;91.39
47883;BME280;37739;50.350;7.578;2023-02-17T10:52:01;100290.75;;;11.49;92.17
47883;BME280;37739;50.350;7.578;2023-02-17T10:54:39;100301.53;;;11.62;91.44
47883;BME280;37739;50.350;7.578;2023-02-17T10:57:11;100289.97;;;11.73;90.62
47883;BME280;37739;50.350;7.578;2023-02-17T10:59:48;100291.09;;;11.79;90.29
47883;BME280;37739;50.350;7.578;2023-02-17T11:02:20;100282.72;;;11.84;90.13
47883;BME280;37739;50.350;7.578;2023-02-17T11:04:49;100288.88;;;11.89;90.01
47883;BME280;37739;50.350;7.578;2023-02-17T11:07:18;100298.31;;;11.88;89.67
47883;BME280;37739;50.350;7.578;2023-02-17T11:09:48;100289.06;;;11.92;89.63
47883;BME280;37739;50.350;7.578;2023-02-17T11:12:24;100293.44;;;11.94;89.40
47883;BME280;37739;50.350;7.578;2023-02-17T11:14:52;100289.22;;;11.96;89.40
47883;BME280;37739;50.350;7.578;2023-02-17T11:17:27;100294.56;;;12.01;89.34
47883;BME280;37739;50.350;7.578;2023-02-17T11:20:00;100291.78;;;11.96;88.36
47883;BME280;37739;50.350;7.578;2023-02-17T11:22:38;100309.22;;;12.04;88.79
47883;BME280;37739;50.350;7.578;2023-02-17T11:25:26;100301.66;;;12.07;88.61
47883;BME280;37739;50.350;7.578;2023-02-17T11:27:52;100310.81;;;12.23;88.71
47883;BME280;37739;50.350;7.578;2023-02-17T11:30:21;100301.13;;;12.38;87.53
47883;BME280;37739;50.350;7.578;2023-02-17T11:32:50;100308.94;;;12.41;87.34
47883;BME280;37739;50.350;7.578;2023-02-17T11:35:41;100314.06;;;12.41;87.12
47883;BME280;37739;50.350;7.578;2023-02-17T11:38:14;100300.41;;;12.42;87.04
47883;BME280;37739;50.350;7.578;2023-02-17T11:40:53;100310.63;;;12.41;87.20
47883;BME280;37739;50.350;7.578;2023-02-17T11:43:18;100305.47;;;12.41;86.62
47883;BME280;37739;50.350;7.578;2023-02-17T11:51:02;100314.50;;;12.52;86.70
47883;BME280;37739;50.350;7.578;2023-02-17T11:58:59;100276.97;;;12.58;86.30
47883;BME280;37739;50.350;7.578;2023-02-17T12:07:13;100295.00;;;12.83;84.87
47883;BME280;37739;50.350;7.578;2023-02-17T12:20:50;100276.66;;;12.73;84.74
47883;BME280;37739;50.350;7.578;2023-02-17T12:26:13;100246.47;;;12.69;85.05
47883;BME280;37739;50.350;7.578;2023-02-17T12:34:29;100239.41;;;12.88;84.47
47883;BME280;37739;50.350;7.578;2023-02-17T12:36:58;100241.28;;;12.92;84.45
47883;BME280;37739;50.350;7.578;2023-02-17T12:42:20;100230.25;;;12.96;83.84
47883;BME280;37739;50.350;7.578;2023-02-17T12:45:18;100230.63;;;13.07;83.07
47883;BME280;37739;50.350;7.578;2023-02-17T12:47:56;100226.47;;;13.12;83.34
47883;BME280;37739;50.350;7.578;2023-02-17T12:50:28;100218.66;;;13.09;83.56
47883;BME280;37739;50.350;7.578;2023-02-17T12:52:59;100218.88;;;13.15;83.13
47883;BME280;37739;50.350;7.578;2023-02-17T12:55:40;100217.59;;;13.29;82.81
47883;BME280;37739;50.350;7.578;2023-02-17T12:58:15;100222.31;;;13.41;82.53
47883;BME280;37739;50.350;7.578;2023-02-17T13:01:12;100207.38;;;13.58;81.45
47883;BME280;37739;50.350;7.578;2023-02-17T13:03:41;100203.56;;;13.72;81.53
47883;BME280;37739;50.350;7.578;2023-02-17T13:09:00;100213.28;;;13.54;81.85
47883;BME280;37739;50.350;7.578;2023-02-17T13:11:32;100205.50;;;13.52;81.17
47883;BME280;37739;50.350;7.578;2023-02-17T13:14:28;100219.72;;;13.67;80.79
47883;BME280;37739;50.350;7.578;2023-02-17T13:16:56;100203.44;;;13.69;80.25
47883;BME280;37739;50.350;7.578;2023-02-17T13:19:29;100213.88;;;13.74;79.92
47883;BME280;37739;50.350;7.578;2023-02-17T13:21:56;100214.13;;;13.82;80.57
47883;BME280;37739;50.350;7.578;2023-02-17T13:24:33;100212.97;;;13.72;80.20
47883;BME280;37739;50.350;7.578;2023-02-17T13:27:20;100215.97;;;13.57;80.48
47883;BME280;37739;50.350;7.578;2023-02-17T13:29:46;100203.94;;;13.58;80.74
47883;BME280;37739;50.350;7.578;2023-02-17T13:32:27;100193.56;;;13.56;80.80
47883;BME280;37739;50.350;7.578;2023-02-17T13:37:41;100182.09;;;13.46;80.77
47883;BME280;37739;50.350;7.578;2023-02-17T13:43:05;100190.94;;;13.54;80.61
47883;BME280;37739;50.350;7.578;2023-02-17T13:48:34;100173.59;;;13.76;80.04
47883;BME280;37739;50.350;7.578;2023-02-17T13:51:05;100167.38;;;14.00;79.30
47883;BME280;37739;50.350;7.578;2023-02-17T13:53:36;100169.06;;;13.98;79.02
47883;BME280;37739;50.350;7.578;2023-02-17T13:56:07;100180.34;;;14.01;79.47
47883;BME280;37739;50.350;7.578;2023-02-17T13:58:40;100176.63;;;13.93;79.17
47883;BME280;37739;50.350;7.578;2023-02-17T14:01:17;100174.75;;;13.87;79.44
47883;BME280;37739;50.350;7.578;2023-02-17T14:03:46;100172.91;;;13.83;79.15
47883;BME280;37739;50.350;7.578;2023-02-17T14:06:28;100173.97;;;13.90;79.10
47883;BME280;37739;50.350;7.578;2023-02-17T14:08:54;100174.06;;;13.93;79.13
47883;BME280;37739;50.350;7.578;2023-02-17T14:11:27;100178.41;;;13.94;78.89
47883;BME280;37739;50.350;7.578;2023-02-17T14:13:59;100173.28;;;13.96;79.10
47883;BME280;37739;50.350;7.578;2023-02-17T14:19:05;100172.44;;;13.97;79.14
47883;BME280;37739;50.350;7.578;2023-02-17T14:21:34;100177.72;;;14.00;79.47
47883;BME280;37739;50.350;7.578;2023-02-17T14:24:00;100180.56;;;14.09;78.96
47883;BME280;37739;50.350;7.578;2023-02-17T14:29:07;100186.44;;;14.05;78.56
47883;BME280;37739;50.350;7.578;2023-02-17T14:34:04;100196.56;;;13.99;79.10
47883;BME280;37739;50.350;7.578;2023-02-17T14:36:39;100197.38;;;13.96;79.57
47883;BME280;37739;50.350;7.578;2023-02-17T14:39:08;100204.03;;;13.89;79.53
47883;BME280;37739;50.350;7.578;2023-02-17T14:41:39;100192.56;;;13.80;79.91
47883;BME280;37739;50.350;7.578;2023-02-17T14:44:09;100196.56;;;13.68;80.71
47883;BME280;37739;50.350;7.578;2023-02-17T14:46:35;100202.41;;;13.64;80.51
47883;BME280;37739;50.350;7.578;2023-02-17T14:49:04;100183.38;;;13.59;80.68